Time;durP1;ratioP1;P1;durP2;ratioP2;P2;SDS_P1;SDS_P2;PMS_P1;PMS_P2;Temp;Humidity;BMP_temperature;BMP_pressure;BME280_temperature;BME280_humidity;BME280_pressure;Samples;Min_cycle;Max_cycle;Signal;HPM_P1;HPM_P2
2023/05/13 00:01:30;;;;;;;;;;;;;;;9.77;69.62;98056.06;5074660;28;20037;-59
2023/05/13 00:04:18;;;;;;;;;;;;;;;9.75;69.93;98053.69;5077519;28;20384;-61
2023/05/13 00:07:06;;;;;;;;;;;;;;;9.73;69.92;98053.16;5077335;28;19931;-61
2023/05/13 00:09:54;;;;;;;;;;;;;;;9.66;70.28;98052.75;5081183;28;20265;-59
2023/05/13 00:12:42;;;;;;;;;;;;;;;9.60;70.50;98053.97;5069575;28;19924;-60
2023/05/13 00:15:31;;;;;;;;;;;;;;;9.62;70.69;98049.84;5070666;28;19920;-60
2023/05/13 00:18:20;;;;;;;;;;;;;;;9.59;71.11;98049.66;5071457;28;19926;-62
2023/05/13 00:21:09;;;;;;;;;;;;;;;9.60;70.85;98048.56;5078280;28;19974;-60
2023/05/13 00:23:57;;;;;;;;;;;;;;;9.64;70.55;98041.41;5086475;28;20002;-60
2023/05/13 00:26:45;;;;;;;;;;;;;;;9.60;70.46;98038.50;5081837;28;19920;-59
2023/05/13 00:29:33;;;;;;;;;;;;;;;9.52;71.50;98038.38;5079302;28;19932;-59
2023/05/13 00:32:21;;;;;;;;;;;;;;;9.48;72.30;98037.38;5078447;28;20017;-59
2023/05/13 00:35:11;;;;;;;;;;;;;;;9.45;72.85;98036.09;5104300;27;19927;-59
2023/05/13 00:37:59;;;;;;;;;;;;;;;9.47;73.39;98035.78;5090638;28;20089;-60
2023/05/13 00:40:47;;;;;;;;;;;;;;;9.44;73.02;98040.72;5073046;28;19921;-60
2023/05/13 00:43:35;;;;;;;;;;;;;;;9.42;72.04;98042.09;5090166;27;19920;-61
2023/05/13 00:46:25;;;;;;;;;;;;;;;9.38;72.33;98038.41;5113173;27;20453;-59
2023/05/13 00:49:14;;;;;;;;;;;;;;;9.39;73.16;98045.41;5111005;27;19993;-60
2023/05/13 00:52:03;;;;;;;;;;;;;;;9.39;71.64;98040.81;5075783;28;19920;-61
2023/05/13 00:54:51;;;;;;;;;;;;;;;9.36;71.74;98040.59;5092556;28;19924;-58
2023/05/13 00:57:40;;;;;;;;;;;;;;;9.37;72.01;98044.91;5077838;28;19928;-59
2023/05/13 01:00:28;;;;;;;;;;;;;;;9.36;71.63;98051.44;5081512;28;20018;-58
2023/05/13 01:03:18;;;;;;;;;;;;;;;9.38;71.55;98054.66;5085906;28;19931;-59
2023/05/13 01:06:08;;;;;;;;;;;;;;;9.41;71.73;98052.13;5102905;27;20042;-60
2023/05/13 01:09:02;;;;;;;;;;;;;;;9.37;71.54;98059.25;5087167;28;19935;-61
2023/05/13 01:11:50;;;;;;;;;;;;;;;9.32;72.67;98059.38;5082205;28;19920;-61
2023/05/13 01:14:40;;;;;;;;;;;;;;;9.28;73.17;98062.97;5090423;28;19938;-58
2023/05/13 01:17:30;;;;;;;;;;;;;;;9.21;73.24;98060.63;5075936;28;19968;-62
2023/05/13 01:20:19;;;;;;;;;;;;;;;9.20;73.66;98056.31;5082502;28;19920;-59
2023/05/13 01:23:11;;;;;;;;;;;;;;;9.12;73.78;98051.63;5086941;28;20411;-60
2023/05/13 01:25:59;;;;;;;;;;;;;;;9.03;74.18;98061.50;5104054;27;19924;-60
2023/05/13 01:28:49;;;;;;;;;;;;;;;8.99;74.63;98061.28;5084748;28;19924;-61
2023/05/13 01:31:37;;;;;;;;;;;;;;;8.97;74.75;98063.50;5088886;28;19920;-58
2023/05/13 01:34:26;;;;;;;;;;;;;;;8.97;74.95;98070.84;5070615;28;19920;-59
2023/05/13 01:37:14;;;;;;;;;;;;;;;8.91;75.10;98068.22;5076973;28;19954;-63
2023/05/13 01:40:05;;;;;;;;;;;;;;;8.93;75.48;98068.72;5081619;28;19926;-59
2023/05/13 01:43:14;;;;;;;;;;;;;;;8.86;75.32;98071.00;5101520;27;19920;-60
2023/05/13 01:46:11;;;;;;;;;;;;;;;8.83;75.55;98063.47;5109033;27;20476;-62
2023/05/13 01:48:59;;;;;;;;;;;;;;;8.86;74.90;98060.16;5079039;28;19943;-59
2023/05/13 01:51:48;;;;;;;;;;;;;;;8.94;74.95;98066.81;5108591;27;19932;-62
2023/05/13 01:54:36;;;;;;;;;;;;;;;8.85;75.06;98063.19;5092408;28;20467;-61
2023/05/13 01:57:31;;;;;;;;;;;;;;;8.84;75.29;98062.38;5081118;28;19920;-59
2023/05/13 02:00:20;;;;;;;;;;;;;;;8.85;75.25;98055.06;5107807;27;19927;-61
2023/05/13 02:03:10;;;;;;;;;;;;;;;8.84;75.22;98062.38;5081755;28;19924;-64
2023/05/13 02:05:58;;;;;;;;;;;;;;;8.87;74.78;98067.19;5080612;28;19931;-58
2023/05/13 02:08:46;;;;;;;;;;;;;;;8.93;74.89;98057.88;5102427;27;20460;-62
2023/05/13 02:11:35;;;;;;;;;;;;;;;8.94;75.03;98064.09;5086122;28;20551;-60
2023/05/13 02:14:24;;;;;;;;;;;;;;;8.95;74.77;98054.88;5080635;28;19920;-58
2023/05/13 02:17:13;;;;;;;;;;;;;;;9.01;74.91;98058.31;5081169;28;20250;-60
2023/05/13 02:20:02;;;;;;;;;;;;;;;9.04;74.24;98060.41;5085361;28;19953;-60
2023/05/13 02:22:50;;;;;;;;;;;;;;;9.05;74.19;98057.41;5113958;27;19924;-63
2023/05/13 02:25:38;;;;;;;;;;;;;;;9.01;74.19;98058.31;5110894;27;20387;-60
2023/05/13 02:28:27;;;;;;;;;;;;;;;9.04;74.54;98061.22;5086281;28;20022;-62
2023/05/13 02:31:16;;;;;;;;;;;;;;;9.11;74.37;98063.56;5086658;28;19927;-62
2023/05/13 02:34:07;;;;;;;;;;;;;;;9.05;74.79;98062.00;5115074;27;20228;-60
2023/05/13 02:36:55;;;;;;;;;;;;;;;9.06;74.25;98060.94;5114820;27;20369;-61
2023/05/13 02:39:44;;;;;;;;;;;;;;;9.08;73.98;98054.09;5120851;27;19939;-59
2023/05/13 02:42:34;;;;;;;;;;;;;;;9.12;74.29;98049.69;5113649;27;19955;-59
2023/05/13 02:45:22;;;;;;;;;;;;;;;9.09;74.02;98063.84;5088751;28;20336;-60
2023/05/13 02:48:17;;;;;;;;;;;;;;;9.04;74.63;98063.91;5108462;27;20009;-60
2023/05/13 02:51:05;;;;;;;;;;;;;;;9.01;74.66;98055.59;5111127;27;19924;-61
2023/05/13 02:53:54;;;;;;;;;;;;;;;9.00;74.90;98062.09;5091123;28;19928;-62
2023/05/13 02:56:42;;;;;;;;;;;;;;;9.05;74.78;98062.81;5115467;27;19927;-62
2023/05/13 02:59:30;;;;;;;;;;;;;;;9.05;74.56;98059.31;5092836;28;19924;-62
2023/05/13 03:02:19;;;;;;;;;;;;;;;9.00;74.76;98065.63;5112741;27;20297;-62
2023/05/13 03:05:09;;;;;;;;;;;;;;;9.06;74.58;98066.34;5118083;27;20022;-66
2023/05/13 03:07:57;;;;;;;;;;;;;;;9.06;74.44;98069.88;5086136;28;19928;-62
2023/05/13 03:10:46;;;;;;;;;;;;;;;9.06;74.41;98066.34;5087735;28;19978;-59
2023/05/13 03:13:34;;;;;;;;;;;;;;;9.06;74.01;98079.91;5088927;28;20054;-58
2023/05/13 03:16:22;;;;;;;;;;;;;;;9.12;73.79;98079.50;5093152;28;19968;-62
2023/05/13 03:19:11;;;;;;;;;;;;;;;9.03;74.47;98075.06;5083042;28;19924;-59
2023/05/13 03:22:00;;;;;;;;;;;;;;;9.01;74.63;98071.88;5087690;28;20254;-59
2023/05/13 03:24:49;;;;;;;;;;;;;;;8.99;74.64;98077.56;5081298;28;19931;-59
2023/05/13 03:27:39;;;;;;;;;;;;;;;9.04;74.06;98076.66;5083676;28;19934;-59
2023/05/13 03:30:29;;;;;;;;;;;;;;;9.03;74.72;98077.78;5090261;28;20368;-59
2023/05/13 03:33:23;;;;;;;;;;;;;;;9.03;74.82;98075.88;5107080;27;20357;-63
2023/05/13 03:36:12;;;;;;;;;;;;;;;9.03;74.58;98075.88;5077887;28;19927;-59
2023/05/13 03:39:02;;;;;;;;;;;;;;;9.09;74.64;98080.09;5103219;27;19955;-64
2023/05/13 03:41:50;;;;;;;;;;;;;;;9.07;74.57;98085.03;5116110;27;20453;-61
2023/05/13 03:44:40;;;;;;;;;;;;;;;9.09;74.71;98080.09;5088195;28;19965;-58
2023/05/13 03:47:30;;;;;;;;;;;;;;;9.12;74.68;98073.28;5081684;28;19930;-60
2023/05/13 03:50:21;;;;;;;;;;;;;;;9.12;74.68;98078.72;5111961;27;19953;-63
2023/05/13 03:53:12;;;;;;;;;;;;;;;9.14;74.94;98084.63;5115954;27;19924;-60
2023/05/13 03:56:03;;;;;;;;;;;;;;;9.12;74.35;98084.94;5087809;28;20022;-61
2023/05/13 03:58:51;;;;;;;;;;;;;;;9.20;74.26;98086.16;5094247;28;19988;-61
2023/05/13 04:01:39;;;;;;;;;;;;;;;9.23;73.95;98095.59;5117285;27;19920;-62
2023/05/13 04:04:29;;;;;;;;;;;;;;;9.33;73.49;98087.28;5095315;28;19920;-59
2023/05/13 04:07:17;;;;;;;;;;;;;;;9.29;73.32;98092.50;5124020;27;20061;-62
2023/05/13 04:10:06;;;;;;;;;;;;;;;9.33;73.99;98095.44;5099289;28;19923;-62
2023/05/13 04:12:56;;;;;;;;;;;;;;;9.37;73.42;98093.72;5090978;28;19926;-61
2023/05/13 04:15:45;;;;;;;;;;;;;;;9.48;72.80;98094.31;5086334;28;19928;-57
2023/05/13 04:18:33;;;;;;;;;;;;;;;9.50;72.67;98094.84;5092750;28;20389;-57
2023/05/13 04:21:21;;;;;;;;;;;;;;;9.48;72.84;98091.63;5082662;28;19925;-62
2023/05/13 04:24:09;;;;;;;;;;;;;;;9.50;72.97;98095.66;5078991;28;19920;-62
2023/05/13 04:26:58;;;;;;;;;;;;;;;9.56;72.88;98094.44;5090808;28;20276;-61
2023/05/13 04:29:50;;;;;;;;;;;;;;;9.65;72.46;98092.66;5122894;27;19932;-56
2023/05/13 04:32:39;;;;;;;;;;;;;;;9.69;72.37;98100.97;5090968;28;19920;-60
2023/05/13 04:35:28;;;;;;;;;;;;;;;9.74;72.38;98098.16;5090563;28;19943;-62
2023/05/13 04:38:20;;;;;;;;;;;;;;;9.73;72.10;98107.41;5085311;28;20377;-59
2023/05/13 04:41:08;;;;;;;;;;;;;;;9.77;72.62;98107.63;5079142;28;20380;-58
2023/05/13 04:44:01;;;;;;;;;;;;;;;9.76;73.17;98103.31;5091195;28;20529;-62
2023/05/13 04:46:51;;;;;;;;;;;;;;;9.81;73.64;98112.16;5084121;28;19920;-57
2023/05/13 04:49:39;;;;;;;;;;;;;;;9.88;72.94;98111.75;5088248;28;19927;-56
2023/05/13 04:52:27;;;;;;;;;;;;;;;9.94;72.32;98110.53;5098913;27;19935;-63
2023/05/13 04:55:16;;;;;;;;;;;;;;;10.04;72.29;98117.69;5113455;27;20375;-59
2023/05/13 04:58:04;;;;;;;;;;;;;;;10.26;71.32;98115.06;5082421;28;19924;-60
2023/05/13 05:00:52;;;;;;;;;;;;;;;10.27;71.21;98124.00;5086048;28;19956;-63
2023/05/13 05:03:42;;;;;;;;;;;;;;;10.31;71.03;98114.97;5112965;27;19932;-57
2023/05/13 05:06:32;;;;;;;;;;;;;;;10.38;70.88;98115.34;5096515;27;20526;-60
2023/05/13 05:09:20;;;;;;;;;;;;;;;10.39;70.49;98111.53;5079640;28;19921;-58
2023/05/13 05:12:10;;;;;;;;;;;;;;;10.48;70.75;98119.75;5090699;28;19961;-60
2023/05/13 05:15:01;;;;;;;;;;;;;;;10.59;70.10;98117.63;5098453;27;20014;-60
2023/05/13 05:17:49;;;;;;;;;;;;;;;10.63;70.01;98126.75;5112277;27;19928;-60
2023/05/13 05:20:39;;;;;;;;;;;;;;;10.64;69.65;98123.72;5084040;28;20017;-59
2023/05/13 05:23:34;;;;;;;;;;;;;;;10.73;69.63;98123.81;5087299;28;19924;-60
2023/05/13 05:26:23;;;;;;;;;;;;;;;10.71;69.78;98123.34;5110071;27;20365;-59
2023/05/13 05:29:11;;;;;;;;;;;;;;;10.74;69.97;98128.13;5113993;27;19920;-58
2023/05/13 05:32:00;;;;;;;;;;;;;;;10.74;69.40;98139.00;5082050;28;19925;-61
2023/05/13 05:34:49;;;;;;;;;;;;;;;10.76;69.46;98142.25;5111647;27;19939;-64
2023/05/13 05:37:38;;;;;;;;;;;;;;;10.82;69.36;98146.44;5078236;28;19924;-58
2023/05/13 05:40:27;;;;;;;;;;;;;;;10.90;68.62;98140.25;5107412;27;19997;-61
2023/05/13 05:43:15;;;;;;;;;;;;;;;10.91;68.88;98144.59;5113225;27;20895;-59
2023/05/13 05:46:03;;;;;;;;;;;;;;;10.88;69.41;98145.22;5113513;27;20006;-59
2023/05/13 05:48:52;;;;;;;;;;;;;;;11.14;68.18;98147.34;5084580;28;19924;-60
2023/05/13 05:51:41;;;;;;;;;;;;;;;11.02;68.79;98150.59;5093974;27;19919;-60
2023/05/13 05:54:30;;;;;;;;;;;;;;;11.09;69.16;98144.75;5071053;28;19924;-59
2023/05/13 05:57:19;;;;;;;;;;;;;;;11.08;69.55;98146.66;5109303;27;19939;-61
2023/05/13 06:00:09;;;;;;;;;;;;;;;11.10;69.62;98151.78;5089920;28;19920;-62
2023/05/13 06:03:01;;;;;;;;;;;;;;;11.16;69.32;98150.53;5080300;28;19919;-59
2023/05/13 06:05:50;;;;;;;;;;;;;;;11.20;69.38;98146.91;5096577;28;20333;-59
2023/05/13 06:08:38;;;;;;;;;;;;;;;11.25;68.95;98148.69;5084270;28;19924;-63
2023/05/13 06:11:29;;;;;;;;;;;;;;;11.34;69.66;98160.41;5066972;28;19924;-61
2023/05/13 06:14:17;;;;;;;;;;;;;;;11.43;68.24;98149.59;5075645;28;20019;-59
2023/05/13 06:17:08;;;;;;;;;;;;;;;11.54;68.32;98157.19;5097436;27;19951;-63
2023/05/13 06:19:57;;;;;;;;;;;;;;;11.53;67.85;98155.59;5078252;28;19928;-63
2023/05/13 06:22:47;;;;;;;;;;;;;;;11.54;68.05;98157.19;5081420;28;20014;-63
2023/05/13 06:25:36;;;;;;;;;;;;;;;11.65;67.02;98154.19;5079566;28;19920;-60
2023/05/13 06:28:28;;;;;;;;;;;;;;;11.65;67.65;98146.03;5091197;28;20456;-60
2023/05/13 06:31:17;;;;;;;;;;;;;;;11.61;67.70;98150.50;5112009;27;20407;-58
2023/05/13 06:34:06;;;;;;;;;;;;;;;11.64;67.69;98147.16;5073513;28;19920;-58
2023/05/13 06:36:54;;;;;;;;;;;;;;;11.72;66.86;98147.22;5079843;28;20415;-60
2023/05/13 06:39:43;;;;;;;;;;;;;;;11.68;67.49;98148.94;5076758;28;19927;-60
2023/05/13 06:42:39;;;;;;;;;;;;;;;11.71;68.21;98151.03;5093086;27;19940;-59
2023/05/13 06:45:35;;;;;;;;;;;;;;;11.86;66.69;98151.78;5083916;28;19931;-59
2023/05/13 06:48:24;;;;;;;;;;;;;;;11.84;67.31;98152.09;5071288;28;19967;-60
2023/05/13 06:51:12;;;;;;;;;;;;;;;11.96;66.41;98157.75;5080156;28;19920;-58
2023/05/13 06:54:01;;;;;;;;;;;;;;;11.91;66.26;98154.38;5080801;28;19924;-59
2023/05/13 06:56:49;;;;;;;;;;;;;;;12.03;66.19;98157.28;5078610;28;19924;-58
2023/05/13 06:59:37;;;;;;;;;;;;;;;12.03;66.50;98147.19;5072121;28;19950;-58
2023/05/13 07:02:27;;;;;;;;;;;;;;;12.09;66.27;98157.94;5075300;28;19962;-60
2023/05/13 07:05:15;;;;;;;;;;;;;;;12.16;66.22;98161.03;5076844;28;19928;-59
2023/05/13 07:08:27;;;;;;;;;;;;;;;12.15;66.25;98159.44;5079514;28;20004;-61
2023/05/13 07:11:44;;;;;;;;;;;;;;;12.26;65.74;98158.03;5083697;28;19959;-58
2023/05/13 07:15:10;;;;;;;;;;;;;;;12.37;64.86;98156.63;5069064;28;19932;-58
2023/05/13 07:18:08;;;;;;;;;;;;;;;12.38;64.72;98162.88;5073635;28;19924;-60
2023/05/13 07:20:56;;;;;;;;;;;;;;;12.47;64.35;98155.53;5086212;28;20373;-61
2023/05/13 07:23:44;;;;;;;;;;;;;;;12.51;64.66;98157.25;5072289;28;19924;-58
2023/05/13 07:26:39;;;;;;;;;;;;;;;12.50;64.96;98155.66;5078574;28;19920;-58
2023/05/13 07:29:55;;;;;;;;;;;;;;;12.46;64.78;98162.88;5068923;28;19928;-59
2023/05/13 07:37:37;;;;;;;;;;;;;;;12.41;65.29;98165.75;5086825;28;19924;-60
2023/05/13 07:40:28;;;;;;;;;;;;;;;12.46;65.15;98165.59;5072172;28;19928;-59
2023/05/13 07:47:39;;;;;;;;;;;;;;;12.48;65.51;98168.03;5075685;28;19958;-59
2023/05/13 07:58:44;;;;;;;;;;;;;;;12.59;64.93;98172.03;5041360;28;19921;-63
2023/05/13 08:01:33;;;;;;;;;;;;;;;12.57;65.43;98172.38;5039323;28;19932;-58
2023/05/13 08:19:25;;;;;;;;;;;;;;;12.85;64.40;98170.16;4996549;28;19920;-59
2023/05/13 08:22:14;;;;;;;;;;;;;;;12.99;64.91;98178.16;5020444;28;19925;-62
2023/05/13 08:29:28;;;;;;;;;;;;;;;13.08;63.31;98178.97;5074571;28;19920;-57
2023/05/13 08:35:45;;;;;;;;;;;;;;;13.00;63.49;98171.63;5003825;28;19932;-62
2023/05/13 08:38:34;;;;;;;;;;;;;;;13.01;63.59;98172.41;5014798;28;20689;-60
2023/05/13 08:41:25;;;;;;;;;;;;;;;13.08;63.74;98173.53;5015996;28;19935;-59
2023/05/13 08:44:14;;;;;;;;;;;;;;;13.07;63.27;98176.59;5025953;28;20318;-60
2023/05/13 08:47:07;;;;;;;;;;;;;;;13.06;63.14;98170.34;5005958;28;19934;-61
2023/05/13 08:49:55;;;;;;;;;;;;;;;13.06;63.55;98178.50;5035922;28;19928;-58
2023/05/13 08:52:45;;;;;;;;;;;;;;;13.10;63.58;98181.38;5071548;28;19930;-60
2023/05/13 08:55:33;;;;;;;;;;;;;;;13.14;63.63;98173.38;5087225;28;20340;-58
2023/05/13 08:58:21;;;;;;;;;;;;;;;13.30;63.17;98178.03;5076904;28;19943;-60
2023/05/13 09:01:09;;;;;;;;;;;;;;;13.44;63.61;98177.88;5070282;28;19994;-57
2023/05/13 09:03:58;;;;;;;;;;;;;;;13.60;61.76;98178.16;5076586;28;19941;-60
2023/05/13 09:06:46;;;;;;;;;;;;;;;13.75;61.72;98171.41;5083795;28;20281;-63
2023/05/13 09:09:36;;;;;;;;;;;;;;;13.86;61.40;98178.91;5082889;28;19927;-60
2023/05/13 09:12:43;;;;;;;;;;;;;;;13.94;60.51;98174.53;5071443;28;19925;-58
2023/05/13 09:15:31;;;;;;;;;;;;;;;13.96;60.83;98177.75;5079835;28;19953;-60
2023/05/13 09:18:19;;;;;;;;;;;;;;;13.92;60.70;98179.53;5081082;28;20004;-59
2023/05/13 09:21:24;;;;;;;;;;;;;;;13.94;60.49;98174.53;5076088;28;19951;-62
2023/05/13 09:24:17;;;;;;;;;;;;;;;13.82;60.60;98177.16;5078764;28;19924;-63
2023/05/13 09:27:07;;;;;;;;;;;;;;;13.80;61.29;98173.94;5093611;28;19942;-61
2023/05/13 09:29:58;;;;;;;;;;;;;;;13.95;61.02;98169.88;5082669;28;19927;-63
2023/05/13 09:33:02;;;;;;;;;;;;;;;13.94;59.72;98177.25;5084146;28;20087;-61
2023/05/13 09:35:52;;;;;;;;;;;;;;;14.00;60.18;98177.88;5075007;28;19924;-60
2023/05/13 09:38:40;;;;;;;;;;;;;;;13.91;60.42;98179.88;5081055;28;19987;-63
2023/05/13 09:41:29;;;;;;;;;;;;;;;13.83;61.58;98189.66;5074581;28;20526;-59
2023/05/13 09:44:18;;;;;;;;;;;;;;;13.85;61.33;98188.22;5076623;28;20385;-62
2023/05/13 09:47:06;;;;;;;;;;;;;;;13.81;62.23;98186.47;5079674;28;20034;-64
2023/05/13 09:49:55;;;;;;;;;;;;;;;13.89;61.01;98191.09;5080651;28;19924;-61
2023/05/13 09:52:43;;;;;;;;;;;;;;;13.79;61.21;98178.59;5092435;28;19924;-58
2023/05/13 09:55:31;;;;;;;;;;;;;;;13.79;61.56;98189.50;5086602;28;19924;-59
2023/05/13 09:58:20;;;;;;;;;;;;;;;13.79;61.49;98183.25;5085857;28;19920;-63
2023/05/13 10:01:11;;;;;;;;;;;;;;;13.76;61.01;98186.66;5077660;28;20025;-63
2023/05/13 10:04:00;;;;;;;;;;;;;;;13.74;60.73;98180.69;5082393;28;20343;-61
2023/05/13 10:06:49;;;;;;;;;;;;;;;13.71;60.33;98187.63;5090386;28;19924;-60
2023/05/13 10:09:37;;;;;;;;;;;;;;;13.66;60.19;98192.44;5076032;28;20033;-63
2023/05/13 10:12:26;;;;;;;;;;;;;;;13.57;60.76;98187.78;5071154;28;19969;-61
2023/05/13 10:15:14;;;;;;;;;;;;;;;13.48;60.48;98192.50;5073418;28;19932;-62
2023/05/13 10:18:04;;;;;;;;;;;;;;;13.52;61.05;98193.41;5096842;27;20421;-58
2023/05/13 10:20:54;;;;;;;;;;;;;;;13.63;61.07;98197.44;5075635;28;19927;-61
2023/05/13 10:23:42;;;;;;;;;;;;;;;13.63;60.58;98191.97;5093762;28;19927;-61
2023/05/13 10:26:31;;;;;;;;;;;;;;;13.62;60.87;98195.00;5084235;28;19928;-57
2023/05/13 10:29:19;;;;;;;;;;;;;;;13.69;61.20;98200.81;5076564;28;20020;-61
2023/05/13 10:32:08;;;;;;;;;;;;;;;13.85;60.85;98192.91;5079175;28;19931;-66
2023/05/13 10:34:59;;;;;;;;;;;;;;;14.07;59.43;98189.94;5078203;28;19920;-60
2023/05/13 10:37:54;;;;;;;;;;;;;;;14.14;59.07;98184.75;5091643;28;20047;-60
2023/05/13 10:41:09;;;;;;;;;;;;;;;14.30;58.85;98184.19;5081342;28;19924;-61
2023/05/13 10:43:58;;;;;;;;;;;;;;;14.39;58.69;98201.38;5062569;27;19951;-60
2023/05/13 10:46:47;;;;;;;;;;;;;;;14.53;57.89;98190.22;5083022;28;19927;-59
2023/05/13 10:49:36;;;;;;;;;;;;;;;14.72;58.39;98187.84;5074768;28;19927;-60
2023/05/13 10:52:30;;;;;;;;;;;;;;;14.84;58.29;98195.34;5086397;28;20311;-63
2023/05/13 10:55:18;;;;;;;;;;;;;;;14.74;56.37;98198.47;5083259;28;20400;-58
2023/05/13 10:58:07;;;;;;;;;;;;;;;14.74;56.59;98191.06;5077238;28;20017;-64
2023/05/13 11:01:01;;;;;;;;;;;;;;;14.80;56.94;98189.72;5081805;28;20450;-64
2023/05/13 11:03:52;;;;;;;;;;;;;;;14.76;56.58;98188.00;5074264;28;19972;-62
2023/05/13 11:06:41;;;;;;;;;;;;;;;14.97;57.17;98190.72;5086587;28;20028;-60
2023/05/13 11:09:31;;;;;;;;;;;;;;;15.09;56.48;98191.63;5082798;28;19924;-57
2023/05/13 11:12:19;;;;;;;;;;;;;;;15.42;57.07;98188.13;5078716;28;19924;-64
2023/05/13 11:15:19;;;;;;;;;;;;;;;15.43;54.98;98184.25;5097695;28;20056;-65
2023/05/13 11:18:08;;;;;;;;;;;;;;;15.43;55.04;98185.03;5088880;28;19958;-60
2023/05/13 11:20:56;;;;;;;;;;;;;;;15.22;56.11;98191.66;5090361;28;20009;-56
2023/05/13 11:23:50;;;;;;;;;;;;;;;15.18;57.00;98189.63;5097174;28;19920;-57
2023/05/13 11:26:46;;;;;;;;;;;;;;;15.15;55.95;98190.28;5076319;28;19921;-58
2023/05/13 11:29:35;;;;;;;;;;;;;;;15.23;56.21;98193.28;5091795;28;19928;-61
2023/05/13 11:32:41;;;;;;;;;;;;;;;15.17;55.89;98189.94;5090866;28;19963;-64
2023/05/13 11:35:30;;;;;;;;;;;;;;;15.17;56.26;98192.66;5087686;28;20002;-59
2023/05/13 11:38:22;;;;;;;;;;;;;;;14.85;56.12;98188.72;5081613;28;20393;-61
2023/05/13 11:41:10;;;;;;;;;;;;;;;15.00;56.49;98192.81;5078640;28;19920;-57
2023/05/13 11:44:02;;;;;;;;;;;;;;;15.24;56.27;98192.97;5083318;28;19924;-60
2023/05/13 11:46:50;;;;;;;;;;;;;;;15.39;55.29;98189.59;5086974;28;19924;-59
2023/05/13 11:49:39;;;;;;;;;;;;;;;15.49;54.70;98190.31;5086802;28;19954;-61
2023/05/13 11:52:28;;;;;;;;;;;;;;;15.46;55.18;98186.31;5078433;28;19924;-58
2023/05/13 11:55:24;;;;;;;;;;;;;;;15.65;55.24;98189.38;5090658;28;19957;-57
2023/05/13 11:58:13;;;;;;;;;;;;;;;15.80;54.57;98184.41;5092596;28;19930;-58
2023/05/13 12:01:02;;;;;;;;;;;;;;;15.77;55.01;98193.31;5079514;28;19955;-62
2023/05/13 12:04:00;;;;;;;;;;;;;;;15.56;55.03;98193.31;5082735;28;20006;-60
2023/05/13 12:06:49;;;;;;;;;;;;;;;15.43;55.41;98192.47;5083424;28;19924;-59
2023/05/13 12:09:37;;;;;;;;;;;;;;;15.32;55.70;98194.00;5084943;28;20046;-59
2023/05/13 12:12:26;;;;;;;;;;;;;;;15.49;54.82;98193.03;5093819;27;20056;-58
2023/05/13 12:15:16;;;;;;;;;;;;;;;15.73;54.37;98187.69;5081066;28;19924;-59
2023/05/13 12:18:06;;;;;;;;;;;;;;;15.87;53.65;98193.69;5089330;28;20061;-64
2023/05/13 12:20:55;;;;;;;;;;;;;;;15.89;53.90;98191.38;5084723;28;19958;-59
2023/05/13 12:23:43;;;;;;;;;;;;;;;15.92;53.46;98189.88;5089671;28;19942;-57
2023/05/13 12:26:31;;;;;;;;;;;;;;;15.95;53.28;98189.22;5095027;28;20051;-57
2023/05/13 12:29:19;;;;;;;;;;;;;;;16.09;54.36;98189.72;5076556;28;19954;-62
2023/05/13 12:32:08;;;;;;;;;;;;;;;16.16;53.70;98191.88;5105192;27;19927;-59
2023/05/13 12:34:57;;;;;;;;;;;;;;;15.79;53.55;98199.25;5079376;28;19954;-62
2023/05/13 12:37:45;;;;;;;;;;;;;;;15.79;54.83;98188.28;5105639;27;20570;-62
2023/05/13 12:40:33;;;;;;;;;;;;;;;15.87;55.38;98195.59;5081232;28;19920;-59
2023/05/13 12:43:22;;;;;;;;;;;;;;;15.91;55.69;98191.03;5090948;28;20710;-60
2023/05/13 12:46:11;;;;;;;;;;;;;;;16.00;54.95;98190.94;5070759;28;19981;-59
2023/05/13 12:49:00;;;;;;;;;;;;;;;15.95;54.15;98184.53;5078073;28;19932;-62
2023/05/13 12:51:50;;;;;;;;;;;;;;;15.94;55.41;98187.63;5109014;27;19927;-58
2023/05/13 12:54:38;;;;;;;;;;;;;;;15.84;55.16;98190.81;5090497;28;20529;-61
2023/05/13 12:57:27;;;;;;;;;;;;;;;15.82;54.94;98184.84;5086844;28;19973;-60
2023/05/13 13:00:17;;;;;;;;;;;;;;;15.76;54.24;98191.69;5076766;28;19924;-63
2023/05/13 13:03:06;;;;;;;;;;;;;;;15.66;54.67;98193.72;5084716;28;19924;-58
2023/05/13 13:05:54;;;;;;;;;;;;;;;15.76;55.81;98197.16;5082597;28;20488;-58
2023/05/13 13:08:44;;;;;;;;;;;;;;;15.82;53.78;98173.88;5086588;28;19925;-60
2023/05/13 13:11:32;;;;;;;;;;;;;;;16.08;53.76;98188.09;5087084;28;19924;-61
2023/05/13 13:14:22;;;;;;;;;;;;;;;16.18;53.79;98182.16;5067370;28;19920;-64
2023/05/13 13:17:10;;;;;;;;;;;;;;;16.13;53.28;98187.88;5086201;28;19958;-61
2023/05/13 13:19:59;;;;;;;;;;;;;;;16.18;53.83;98190.38;5071270;28;19979;-59
2023/05/13 13:22:47;;;;;;;;;;;;;;;16.35;53.46;98185.84;5083761;28;20358;-60
2023/05/13 13:25:37;;;;;;;;;;;;;;;16.19;52.69;98172.81;5072764;28;19985;-60
2023/05/13 13:28:25;;;;;;;;;;;;;;;15.99;53.32;98181.94;5072433;28;19961;-61
2023/05/13 13:31:14;;;;;;;;;;;;;;;15.91;54.30;98183.63;5074796;28;19932;-64
2023/05/13 13:34:04;;;;;;;;;;;;;;;15.89;53.32;98180.44;5082071;28;19932;-63
2023/05/13 13:36:52;;;;;;;;;;;;;;;15.83;54.20;98170.03;5074184;28;19997;-62
2023/05/13 13:39:41;;;;;;;;;;;;;;;16.04;53.74;98168.00;5077325;28;19931;-60
2023/05/13 13:42:30;;;;;;;;;;;;;;;15.99;54.75;98160.00;5078600;28;20128;-60
2023/05/13 13:45:31;;;;;;;;;;;;;;;16.09;54.78;98162.31;5075221;28;19977;-63
2023/05/13 13:48:19;;;;;;;;;;;;;;;16.15;54.08;98149.97;5056856;28;19939;-62
2023/05/13 13:51:07;;;;;;;;;;;;;;;16.20;54.19;98155.22;5074839;28;19930;-60
2023/05/13 13:53:55;;;;;;;;;;;;;;;16.19;54.03;98156.38;5076289;28;19943;-62
2023/05/13 13:56:43;;;;;;;;;;;;;;;15.93;54.35;98164.91;5060540;28;19920;-60
2023/05/13 13:59:33;;;;;;;;;;;;;;;15.76;55.17;98159.59;5073704;28;19927;-59
2023/05/13 14:02:23;;;;;;;;;;;;;;;15.90;55.86;98159.31;5072939;28;21020;-62
2023/05/13 14:05:11;;;;;;;;;;;;;;;15.88;54.92;98161.59;5068392;28;20325;-59
2023/05/13 14:08:00;;;;;;;;;;;;;;;15.97;55.75;98160.34;5076387;28;19920;-60
2023/05/13 14:10:48;;;;;;;;;;;;;;;16.20;55.05;98151.69;5055553;28;19920;-60
2023/05/13 14:13:37;;;;;;;;;;;;;;;16.31;54.28;98152.84;5075017;28;19920;-58
2023/05/13 14:16:26;;;;;;;;;;;;;;;16.37;53.42;98156.94;5071997;28;19939;-60
2023/05/13 14:19:16;;;;;;;;;;;;;;;16.40;54.04;98145.28;5076546;28;19932;-60
2023/05/13 14:22:07;;;;;;;;;;;;;;;16.38;53.81;98146.78;5059877;28;19954;-59
2023/05/13 14:24:55;;;;;;;;;;;;;;;16.52;54.62;98152.72;5072027;28;20012;-58
2023/05/13 14:27:44;;;;;;;;;;;;;;;16.54;53.91;98149.63;5078200;28;19935;-58
2023/05/13 14:30:32;;;;;;;;;;;;;;;16.59;53.13;98150.19;5072762;28;19935;-60
2023/05/13 14:33:22;;;;;;;;;;;;;;;16.37;52.67;98151.47;5073295;28;19967;-61
2023/05/13 14:36:14;;;;;;;;;;;;;;;16.43;52.54;98154.78;5085233;28;20002;-58
2023/05/13 14:39:07;;;;;;;;;;;;;;;16.60;52.86;98153.72;5072845;28;20380;-61
2023/05/13 14:41:58;;;;;;;;;;;;;;;16.77;52.47;98140.56;5067163;28;19928;-59
2023/05/13 14:44:46;;;;;;;;;;;;;;;16.83;52.37;98135.66;5072635;28;19924;-59
2023/05/13 14:47:34;;;;;;;;;;;;;;;16.68;52.45;98142.63;5072709;28;20571;-59
2023/05/13 14:50:24;;;;;;;;;;;;;;;16.54;53.12;98144.94;5082011;28;19931;-61
2023/05/13 14:53:12;;;;;;;;;;;;;;;16.56;52.90;98141.84;5067013;28;19921;-59
2023/05/13 14:56:03;;;;;;;;;;;;;;;16.44;53.40;98131.69;5065691;28;19973;-62
2023/05/13 14:58:51;;;;;;;;;;;;;;;16.38;53.31;98136.59;5076382;28;19965;-61
2023/05/13 15:01:42;;;;;;;;;;;;;;;16.28;53.18;98131.56;5077975;28;19937;-58
2023/05/13 15:04:30;;;;;;;;;;;;;;;16.31;53.45;98130.09;5075380;28;20047;-59
2023/05/13 15:07:21;;;;;;;;;;;;;;;16.22;53.08;98125.53;5072419;28;20021;-61
2023/05/13 15:10:09;;;;;;;;;;;;;;;16.20;54.48;98127.81;5074987;28;20380;-59
2023/05/13 15:12:58;;;;;;;;;;;;;;;16.21;53.57;98120.41;5072684;28;20479;-60
2023/05/13 15:15:46;;;;;;;;;;;;;;;16.16;53.88;98121.41;5084027;28;19938;-60
2023/05/13 15:18:34;;;;;;;;;;;;;;;16.21;53.63;98114.91;5059350;28;19935;-58
2023/05/13 15:21:23;;;;;;;;;;;;;;;16.27;53.05;98118.22;5070185;28;20067;-60
2023/05/13 15:24:12;;;;;;;;;;;;;;;16.28;53.95;98106.09;5077305;28;19935;-61
2023/05/13 15:27:02;;;;;;;;;;;;;;;16.18;53.31;98112.84;5076669;28;20038;-62
2023/05/13 15:29:50;;;;;;;;;;;;;;;16.17;53.29;98114.00;5080222;28;19958;-59